Terminal Aerodrome Forecast
Issued by NWS

Home | Current Version | Previous Version | Text Only | Print | Product List | Glossary On
Versions: 1 2 3 4 5 6 7 8 9 10 11 12 13 14 15 16
000
FTUS46 KHNX 142324
TAFVIS
TAF
KVIS 142324Z 1500/1524 VRB04KT 3SM HZ SKC
     FM150600 VRB02KT 2SM BR SKC
      TEMPO 1514/1517 1SM BR
     FM152000 VRB04KT 3SM HZ SKC
     FM152300 VRB05KT 5SM HZ SKC=

USA.gov is the U.S. government's official web portal to all federal, state and local government web resources and services.